createdAt,value
2022-09-28T00:00:20.017Z,3.20
2022-09-28T00:02:46.563Z,3.90
2022-09-28T00:05:13.263Z,2.67
2022-09-28T00:07:40.301Z,4.50
2022-09-28T00:10:07.772Z,6.07
2022-09-28T00:12:34.566Z,2.97
2022-09-28T00:15:00.793Z,2.77
2022-09-28T00:17:27.080Z,4.87
2022-09-28T00:19:53.689Z,3.60
2022-09-28T00:22:19.914Z,3.73
2022-09-28T00:24:46.557Z,3.40
2022-09-28T00:27:12.881Z,4.00
2022-09-28T00:29:39.176Z,3.90
2022-09-28T00:32:12.198Z,4.93
2022-09-28T00:34:41.208Z,3.50
2022-09-28T00:37:10.756Z,5.23
2022-09-28T00:39:38.260Z,4.37
2022-09-28T00:42:10.871Z,3.27
2022-09-28T00:44:39.319Z,2.73
2022-09-28T00:47:12.656Z,4.37
2022-09-28T00:49:41.882Z,4.70
2022-09-28T00:52:10.699Z,2.60
2022-09-28T00:54:36.987Z,3.50
2022-09-28T00:57:03.937Z,3.40
2022-09-28T00:59:32.360Z,2.60
2022-09-28T01:01:58.682Z,6.07
2022-09-28T01:04:29.216Z,3.23
2022-09-28T01:06:57.070Z,4.80
2022-09-28T01:09:25.024Z,2.63
2022-09-28T01:11:51.581Z,2.73
2022-09-28T01:14:19.071Z,2.67
2022-09-28T01:16:49.526Z,3.73
2022-09-28T01:19:29.770Z,3.37
2022-09-28T01:22:09.344Z,6.03
2022-09-28T01:24:49.029Z,3.07
2022-09-28T01:27:39.361Z,3.70
2022-09-28T01:30:05.711Z,2.63
2022-09-28T01:32:35.072Z,2.40
2022-09-28T01:35:15.247Z,2.70
2022-09-28T01:37:45.387Z,3.00
2022-09-28T01:40:12.116Z,2.27
2022-09-28T01:42:39.558Z,3.77
2022-09-28T01:45:09.400Z,5.00
2022-09-28T01:47:37.671Z,3.90
2022-09-28T01:50:07.228Z,3.23
2022-09-28T01:52:41.505Z,3.53
2022-09-28T01:55:16.922Z,2.90
2022-09-28T01:57:46.967Z,3.07
2022-09-28T02:00:14.604Z,3.07
2022-09-28T02:02:48.440Z,2.93
2022-09-28T02:05:16.826Z,2.97
2022-09-28T02:07:48.543Z,5.50
2022-09-28T02:10:24.619Z,3.60
2022-09-28T02:12:51.838Z,4.60
2022-09-28T02:15:20.763Z,3.17
2022-09-28T02:17:47.422Z,4.63
2022-09-28T02:20:13.854Z,3.47
2022-09-28T02:22:49.264Z,3.70
2022-09-28T02:25:35.189Z,4.13
2022-09-28T02:28:05.818Z,4.10
2022-09-28T02:30:33.193Z,3.73
2022-09-28T02:33:02.467Z,4.40
2022-09-28T02:35:28.759Z,5.87
2022-09-28T02:37:55.700Z,4.07
2022-09-28T02:40:23.972Z,5.63
2022-09-28T02:42:56.110Z,5.63
2022-09-28T02:45:41.281Z,5.90
2022-09-28T02:48:13.988Z,4.93
2022-09-28T02:51:01.870Z,4.33
2022-09-28T02:53:30.815Z,4.03
2022-09-28T02:56:15.831Z,4.33
2022-09-28T02:59:05.482Z,5.33
2022-09-28T03:01:39.879Z,4.77
2022-09-28T03:04:11.191Z,4.90
2022-09-28T03:06:40.971Z,6.20
2022-09-28T03:09:26.074Z,6.00
2022-09-28T03:11:54.908Z,6.33
2022-09-28T03:14:21.912Z,5.03
2022-09-28T03:16:48.366Z,4.90
2022-09-28T03:19:16.103Z,6.13
2022-09-28T03:21:42.351Z,5.37
2022-09-28T03:24:10.556Z,7.17
2022-09-28T03:26:37.997Z,5.13
2022-09-28T03:29:04.293Z,7.30
2022-09-28T03:31:30.611Z,7.87
2022-09-28T03:33:56.928Z,5.40
2022-09-28T03:36:23.162Z,5.33
2022-09-28T03:38:51.723Z,5.50
2022-09-28T03:41:17.950Z,5.83
2022-09-28T03:43:44.180Z,6.30
2022-09-28T03:46:10.515Z,6.57
2022-09-28T03:48:36.886Z,5.27
2022-09-28T03:51:05.087Z,5.33
2022-09-28T03:53:32.951Z,6.43
2022-09-28T03:56:03.508Z,5.63
2022-09-28T03:58:29.960Z,8.40
2022-09-28T04:01:01.002Z,5.83
2022-09-28T04:03:27.339Z,7.93
2022-09-28T04:05:53.571Z,6.30
2022-09-28T04:08:19.912Z,7.60
2022-09-28T04:10:46.244Z,7.40
2022-09-28T04:13:12.522Z,6.37
2022-09-28T04:15:38.761Z,5.77
2022-09-28T04:18:09.264Z,7.70
2022-09-28T04:20:35.482Z,7.03
2022-09-28T04:23:01.715Z,5.53
2022-09-28T04:25:27.966Z,6.03
2022-09-28T04:28:12.823Z,8.17
2022-09-28T04:30:39.122Z,5.87
2022-09-28T04:33:05.378Z,6.10
2022-09-28T04:35:31.645Z,5.93
2022-09-28T04:37:57.915Z,10.67
2022-09-28T04:40:24.327Z,7.00
2022-09-28T04:42:55.090Z,7.40
2022-09-28T04:45:21.795Z,6.27
2022-09-28T04:47:48.551Z,7.30
2022-09-28T04:50:14.836Z,8.40
2022-09-28T04:52:41.040Z,7.47
2022-09-28T04:55:07.396Z,6.60
2022-09-28T04:57:36.516Z,9.27
2022-09-28T05:00:03.480Z,6.23
2022-09-28T05:02:29.848Z,6.80
2022-09-28T05:04:56.505Z,7.20
2022-09-28T05:07:22.748Z,8.20
2022-09-28T05:09:49.019Z,8.33
2022-09-28T05:12:15.243Z,9.73
2022-09-28T05:14:41.990Z,7.90
2022-09-28T05:17:09.192Z,7.17
2022-09-28T05:19:35.551Z,8.67
2022-09-28T05:22:06.125Z,7.53
2022-09-28T05:24:32.359Z,8.70
2022-09-28T05:26:58.616Z,8.13
2022-09-28T05:29:27.142Z,8.93
2022-09-28T05:31:55.245Z,9.17
2022-09-28T05:34:21.493Z,8.43
2022-09-28T05:36:48.238Z,7.23
2022-09-28T05:39:14.540Z,6.80
2022-09-28T05:41:40.892Z,7.77
2022-09-28T05:44:07.181Z,7.37
2022-09-28T05:46:33.403Z,6.03
2022-09-28T05:49:00.328Z,8.93
2022-09-28T05:51:26.623Z,7.70
2022-09-28T05:53:56.059Z,9.93
2022-09-28T05:56:22.512Z,8.97
2022-09-28T05:58:48.746Z,7.07
2022-09-28T06:01:14.997Z,7.10
2022-09-28T06:03:41.344Z,8.77
2022-09-28T06:06:07.587Z,5.97
2022-09-28T06:08:33.839Z,9.57
2022-09-28T06:11:01.196Z,8.53
2022-09-28T06:13:27.840Z,6.80
2022-09-28T06:15:54.335Z,6.60
2022-09-28T06:18:20.803Z,6.80
2022-09-28T06:20:47.016Z,8.93
2022-09-28T06:23:13.469Z,7.70
2022-09-28T06:25:39.938Z,8.20
2022-09-28T06:28:06.124Z,10.60
2022-09-28T06:30:33.528Z,10.00
2022-09-28T06:33:01.017Z,8.20
2022-09-28T06:35:28.611Z,6.90
2022-09-28T06:37:54.810Z,9.33
2022-09-28T06:40:21.781Z,8.10
2022-09-28T06:42:58.168Z,7.63
2022-09-28T06:45:25.304Z,7.03
2022-09-28T06:48:10.968Z,7.83
2022-09-28T06:50:39.528Z,6.67
2022-09-28T06:53:06.825Z,7.60
2022-09-28T06:55:33.491Z,7.13
2022-09-28T06:58:00.690Z,9.40
2022-09-28T07:00:27.584Z,6.40
2022-09-28T07:02:53.854Z,9.33
2022-09-28T07:05:26.686Z,7.40
2022-09-28T07:07:55.171Z,10.30
2022-09-28T07:10:23.186Z,9.20
2022-09-28T07:12:50.387Z,10.33
2022-09-28T07:15:16.640Z,11.20
2022-09-28T07:17:56.572Z,9.93
2022-09-28T07:20:28.452Z,7.83
2022-09-28T07:23:11.072Z,8.70
2022-09-28T07:25:45.320Z,7.83
2022-09-28T07:28:12.074Z,8.40
2022-09-28T07:30:38.596Z,7.73
2022-09-28T07:33:06.161Z,7.53
2022-09-28T07:35:34.200Z,9.73
2022-09-28T07:38:04.576Z,8.73
2022-09-28T07:40:49.724Z,9.03
2022-09-28T07:43:20.726Z,7.50
2022-09-28T07:45:47.818Z,8.70
2022-09-28T07:48:17.391Z,9.33
2022-09-28T07:50:47.759Z,7.87
2022-09-28T07:53:14.024Z,7.27
2022-09-28T07:55:40.240Z,8.40
2022-09-28T07:58:06.467Z,9.10
2022-09-28T08:00:34.249Z,6.47
2022-09-28T08:03:01.392Z,7.20
2022-09-28T08:05:31.976Z,8.20
2022-09-28T08:07:59.699Z,7.63
2022-09-28T08:10:26.161Z,10.53
2022-09-28T08:12:59.201Z,8.00
2022-09-28T08:15:28.440Z,7.67
2022-09-28T08:17:56.122Z,6.70
2022-09-28T08:20:43.993Z,8.67
2022-09-28T08:23:12.210Z,7.70
2022-09-28T08:25:38.408Z,7.50
2022-09-28T08:28:06.167Z,7.70
2022-09-28T08:30:33.765Z,9.13
2022-09-28T08:33:00.160Z,8.40
2022-09-28T08:35:26.468Z,8.40
2022-09-28T08:37:55.690Z,9.93
2022-09-28T08:40:26.001Z,8.43
2022-09-28T08:42:54.760Z,8.33
2022-09-28T08:45:28.513Z,6.13
2022-09-28T08:48:15.428Z,8.67
2022-09-28T08:50:48.982Z,7.87
2022-09-28T08:53:24.947Z,6.90
2022-09-28T08:55:51.634Z,8.13
2022-09-28T08:58:22.193Z,6.90
2022-09-28T09:00:49.927Z,7.50
2022-09-28T09:03:17.994Z,6.27
2022-09-28T09:05:50.767Z,6.43
2022-09-28T09:08:29.547Z,7.27
2022-09-28T09:10:55.847Z,4.77
2022-09-28T09:13:41.087Z,5.03
2022-09-28T09:16:17.676Z,3.63
2022-09-28T09:18:51.845Z,4.57
2022-09-28T09:21:27.592Z,4.87
2022-09-28T09:23:55.278Z,5.67
2022-09-28T09:26:31.412Z,5.17
2022-09-28T09:29:00.629Z,4.00
2022-09-28T09:31:42.887Z,3.73
2022-09-28T09:34:16.031Z,3.60
2022-09-28T09:37:01.119Z,5.47
2022-09-28T09:39:45.819Z,5.13
2022-09-28T09:42:23.566Z,3.23
2022-09-28T09:44:49.798Z,3.27
2022-09-28T09:47:19.508Z,2.73
2022-09-28T09:49:49.694Z,6.03
2022-09-28T09:52:22.260Z,4.23
2022-09-28T09:54:55.591Z,3.07
2022-09-28T09:57:25.150Z,3.57
2022-09-28T09:59:51.668Z,1.90
2022-09-28T10:02:31.755Z,3.03
2022-09-28T10:05:10.393Z,3.17
2022-09-28T10:07:44.707Z,3.67
2022-09-28T10:10:18.034Z,4.80
2022-09-28T10:12:44.581Z,4.00
2022-09-28T10:15:14.984Z,2.70
2022-09-28T10:17:41.337Z,5.30
2022-09-28T10:20:12.184Z,4.03
2022-09-28T10:22:38.884Z,3.47
2022-09-28T10:25:05.572Z,2.90
2022-09-28T10:27:34.131Z,6.10
2022-09-28T10:30:03.219Z,2.50
2022-09-28T10:32:46.160Z,3.17
2022-09-28T10:35:18.629Z,3.37
2022-09-28T10:37:50.253Z,2.57
2022-09-28T10:40:30.324Z,3.23
2022-09-28T10:43:00.736Z,2.63
2022-09-28T10:45:27.255Z,2.67
2022-09-28T10:47:55.713Z,3.57
2022-09-28T10:50:26.879Z,3.60
2022-09-28T10:52:53.940Z,3.03
2022-09-28T10:55:29.073Z,4.67
2022-09-28T10:57:56.654Z,4.13
2022-09-28T11:00:42.080Z,2.40
2022-09-28T11:03:19.032Z,2.10
2022-09-28T11:05:53.515Z,3.20
2022-09-28T11:08:23.650Z,3.47
2022-09-28T11:11:01.317Z,2.20
2022-09-28T11:13:27.566Z,4.27
2022-09-28T11:15:53.845Z,5.00
2022-09-28T11:18:31.388Z,2.20
2022-09-28T11:21:11.285Z,3.77
2022-09-28T11:23:38.869Z,3.03
2022-09-28T11:26:06.760Z,4.20
2022-09-28T11:28:35.303Z,3.73
2022-09-28T11:31:02.153Z,3.03
2022-09-28T11:33:49.098Z,3.70
2022-09-28T11:36:17.028Z,3.10
2022-09-28T11:39:02.031Z,2.67
2022-09-28T11:41:34.306Z,4.30
2022-09-28T11:44:08.119Z,3.00
2022-09-28T11:46:41.562Z,2.73
2022-09-28T11:49:20.127Z,2.70
2022-09-28T11:51:47.993Z,3.17
2022-09-28T11:54:28.880Z,5.40
2022-09-28T11:56:57.610Z,2.50
2022-09-28T11:59:28.696Z,2.00
2022-09-28T12:01:55.021Z,3.53
2022-09-28T12:04:24.968Z,2.30
2022-09-28T12:07:00.196Z,2.63
2022-09-28T12:09:45.650Z,1.57
2022-09-28T12:12:28.618Z,1.70
2022-09-28T12:14:57.194Z,3.10
2022-09-28T12:17:25.847Z,2.00
2022-09-28T12:20:01.139Z,1.43
2022-09-28T12:22:30.387Z,1.47
2022-09-28T12:24:57.501Z,2.53
2022-09-28T12:27:35.017Z,0.90
2022-09-28T12:30:19.942Z,2.13
2022-09-28T12:32:46.160Z,1.93
2022-09-28T12:35:19.629Z,1.03
2022-09-28T12:38:10.319Z,1.70
2022-09-28T12:40:39.613Z,1.57
2022-09-28T12:43:10.273Z,2.67
2022-09-28T12:46:10.557Z,0.77
2022-09-28T12:49:33.136Z,0.90
2022-09-28T12:51:42.931Z,3.83
2022-09-28T12:54:27.672Z,1.33
2022-09-28T12:57:12.821Z,1.30
2022-09-28T12:59:41.975Z,1.80
2022-09-28T13:02:20.306Z,2.20
2022-09-28T13:04:55.501Z,1.67
2022-09-28T13:07:24.846Z,1.30
2022-09-28T13:10:01.299Z,1.83
2022-09-28T13:12:42.323Z,1.57
2022-09-28T13:15:27.357Z,2.47
2022-09-28T13:17:57.312Z,1.10
2022-09-28T13:20:37.721Z,1.23
2022-09-28T13:23:11.789Z,1.20
2022-09-28T13:25:40.919Z,1.40
2022-09-28T13:28:07.279Z,2.70
2022-09-28T13:30:34.831Z,1.93
2022-09-28T13:33:02.219Z,1.87
2022-09-28T13:35:29.799Z,6.07
2022-09-28T13:38:14.424Z,2.80
2022-09-28T13:40:59.582Z,1.33
2022-09-28T13:43:31.424Z,0.90
2022-09-28T13:46:00.967Z,0.93
2022-09-28T13:48:48.473Z,2.30
2022-09-28T13:51:30.331Z,0.90
2022-09-28T13:54:02.640Z,1.47
2022-09-28T13:56:49.109Z,1.07
2022-09-28T13:59:15.343Z,1.07
2022-09-28T14:01:44.783Z,0.80
2022-09-28T14:04:19.031Z,1.90
2022-09-28T14:06:56.975Z,1.23
2022-09-28T14:09:23.177Z,2.67
2022-09-28T14:11:54.074Z,1.63
2022-09-28T14:14:27.548Z,2.33
2022-09-28T14:17:00.112Z,1.20
2022-09-28T14:19:31.575Z,0.90
2022-09-28T14:22:07.433Z,3.50
2022-09-28T14:24:44.889Z,2.53
2022-09-28T14:27:17.002Z,1.63
2022-09-28T14:29:43.466Z,1.80
2022-09-28T14:32:09.754Z,0.80
2022-09-28T14:34:35.981Z,1.30
2022-09-28T14:37:35.367Z,1.10
2022-09-28T14:40:27.188Z,1.87
2022-09-28T14:43:13.852Z,1.53
2022-09-28T14:45:44.268Z,3.07
2022-09-28T14:48:13.320Z,2.30
2022-09-28T14:50:39.647Z,0.90
2022-09-28T14:53:09.712Z,0.80
2022-09-28T14:55:56.473Z,0.70
2022-09-28T14:58:24.994Z,1.53
2022-09-28T15:00:54.495Z,2.13
2022-09-28T15:03:21.584Z,2.20
2022-09-28T15:05:48.177Z,3.13
2022-09-28T15:08:14.684Z,0.80
2022-09-28T15:10:46.052Z,1.73
2022-09-28T15:13:25.844Z,1.93
2022-09-28T15:15:57.825Z,2.03
2022-09-28T15:18:33.359Z,1.73
2022-09-28T15:20:59.691Z,3.03
2022-09-28T15:23:39.114Z,3.07
2022-09-28T15:26:09.190Z,1.40
2022-09-28T15:28:36.539Z,1.33
2022-09-28T15:31:04.918Z,2.17
2022-09-28T15:33:50.734Z,1.90
2022-09-28T15:36:20.133Z,1.50
2022-09-28T15:38:51.389Z,2.23
2022-09-28T15:41:17.703Z,2.33
2022-09-28T15:43:46.802Z,1.20
2022-09-28T15:46:20.957Z,1.53
2022-09-28T15:48:51.928Z,1.73
2022-09-28T15:51:19.942Z,1.30
2022-09-28T15:54:06.497Z,1.53
2022-09-28T15:56:50.135Z,1.73
2022-09-28T15:59:16.420Z,1.97
2022-09-28T16:01:43.464Z,2.03
2022-09-28T16:04:28.402Z,6.87
2022-09-28T16:07:12.689Z,2.50
2022-09-28T16:09:59.975Z,2.30
2022-09-28T16:12:48.684Z,3.70
2022-09-28T16:15:23.320Z,3.47
2022-09-28T16:17:50.939Z,1.73
2022-09-28T16:20:22.132Z,1.70
2022-09-28T16:22:48.559Z,3.47
2022-09-28T16:25:19.168Z,2.20
2022-09-28T16:27:45.975Z,2.00
2022-09-28T16:30:15.226Z,2.63
2022-09-28T16:33:01.324Z,2.67
2022-09-28T16:35:42.741Z,2.83
2022-09-28T16:38:16.488Z,3.97
2022-09-28T16:40:44.199Z,1.90
2022-09-28T16:43:17.037Z,2.97
2022-09-28T16:45:43.272Z,4.87
2022-09-28T16:48:13.389Z,4.17
2022-09-28T16:50:39.638Z,3.07
2022-09-28T16:53:34.972Z,3.60
2022-09-28T16:56:01.919Z,2.87
2022-09-28T16:58:31.900Z,3.70
2022-09-28T17:00:58.704Z,3.13
2022-09-28T17:03:25.773Z,3.33
2022-09-28T17:05:52.701Z,3.50
2022-09-28T17:08:20.180Z,3.40
2022-09-28T17:11:13.012Z,3.93
2022-09-28T17:13:37.372Z,2.53
2022-09-28T17:16:06.321Z,2.60
2022-09-28T17:18:32.647Z,2.90
2022-09-28T17:21:03.076Z,4.77
2022-09-28T17:23:29.351Z,4.27
2022-09-28T17:25:56.153Z,3.80
2022-09-28T17:28:23.986Z,3.23
2022-09-28T17:30:50.261Z,4.33
2022-09-28T17:33:16.575Z,3.50
2022-09-28T17:35:43.636Z,4.13
2022-09-28T17:38:11.470Z,4.77
2022-09-28T17:40:38.568Z,3.87
2022-09-28T17:43:05.657Z,4.90
2022-09-28T17:45:32.852Z,4.33
2022-09-28T17:47:59.126Z,4.23
2022-09-28T17:50:30.196Z,4.00
2022-09-28T17:52:57.832Z,4.83
2022-09-28T17:55:34.212Z,3.97
2022-09-28T17:58:01.560Z,3.37
2022-09-28T18:00:28.174Z,3.23
2022-09-28T18:02:55.165Z,4.03
2022-09-28T18:05:21.576Z,3.83
2022-09-28T18:07:48.068Z,4.67
2022-09-28T18:10:15.609Z,4.00
2022-09-28T18:12:43.173Z,5.77
2022-09-28T18:15:10.213Z,5.80
2022-09-28T18:17:37.118Z,6.87
2022-09-28T18:20:04.170Z,6.17
2022-09-28T18:22:30.482Z,6.13
2022-09-28T18:24:56.759Z,3.80
2022-09-28T18:27:23.084Z,5.77
2022-09-28T18:29:49.380Z,4.60
2022-09-28T18:32:15.923Z,5.87
2022-09-28T18:34:42.218Z,4.20
2022-09-28T18:37:08.551Z,3.70
2022-09-28T18:39:35.285Z,3.80
2022-09-28T18:42:02.368Z,4.17
2022-09-28T18:44:28.652Z,15.47
2022-09-28T18:46:54.970Z,5.70
2022-09-28T18:49:21.787Z,4.40
2022-09-28T18:51:48.048Z,5.70
2022-09-28T18:54:14.785Z,4.30
2022-09-28T18:56:41.363Z,4.13
2022-09-28T18:59:20.980Z,4.57
2022-09-28T19:01:47.516Z,4.90
2022-09-28T19:04:14.123Z,4.70
2022-09-28T19:06:41.206Z,5.13
2022-09-28T19:09:08.240Z,7.03
2022-09-28T19:11:34.835Z,10.60
2022-09-28T19:14:01.098Z,7.13
2022-09-28T19:16:31.347Z,5.63
2022-09-28T19:18:58.697Z,7.30
2022-09-28T19:21:25.167Z,5.80
2022-09-28T19:23:53.550Z,4.37
2022-09-28T19:26:24.093Z,4.63
2022-09-28T19:28:50.397Z,5.00
2022-09-28T19:31:16.802Z,6.00
2022-09-28T19:33:44.405Z,4.10
2022-09-28T19:36:12.113Z,4.33
2022-09-28T19:38:39.396Z,6.63
2022-09-28T19:41:09.735Z,5.43
2022-09-28T19:43:36.227Z,4.67
2022-09-28T19:46:04.549Z,4.60
2022-09-28T19:48:31.531Z,5.50
2022-09-28T19:50:58.875Z,4.93
2022-09-28T19:53:29.167Z,4.53
2022-09-28T19:55:56.313Z,6.13
2022-09-28T19:58:23.300Z,5.43
2022-09-28T20:00:49.552Z,4.93
2022-09-28T20:03:16.013Z,5.07
2022-09-28T20:05:43.534Z,7.73
2022-09-28T20:08:09.910Z,5.37
2022-09-28T20:10:36.471Z,5.73
2022-09-28T20:13:03.056Z,5.23
2022-09-28T20:15:29.463Z,8.57
2022-09-28T20:17:56.464Z,7.50
2022-09-28T20:20:22.727Z,6.90
2022-09-28T20:22:48.972Z,7.70
2022-09-28T20:25:15.695Z,8.13
2022-09-28T20:27:42.024Z,8.07
2022-09-28T20:30:08.633Z,9.37
2022-09-28T20:32:35.432Z,9.73
2022-09-28T20:35:01.680Z,10.37
2022-09-28T20:37:27.965Z,8.80
2022-09-28T20:39:54.239Z,10.03
2022-09-28T20:42:20.775Z,8.63
2022-09-28T20:44:46.992Z,7.30
2022-09-28T20:47:13.229Z,6.73
2022-09-28T20:49:39.452Z,6.53
2022-09-28T20:52:05.697Z,8.80
2022-09-28T20:54:31.936Z,7.53
2022-09-28T20:56:58.157Z,8.57
2022-09-28T20:59:26.422Z,8.57
2022-09-28T21:01:52.919Z,7.23
2022-09-28T21:04:19.726Z,9.80
2022-09-28T21:06:46.176Z,9.33
2022-09-28T21:09:12.458Z,8.40
2022-09-28T21:11:38.889Z,7.03
2022-09-28T21:14:06.525Z,7.87
2022-09-28T21:16:33.343Z,8.10
2022-09-28T21:18:59.844Z,7.90
2022-09-28T21:21:26.566Z,7.40
2022-09-28T21:23:53.534Z,6.77
2022-09-28T21:26:26.775Z,6.30
2022-09-28T21:28:53.685Z,6.87
2022-09-28T21:31:22.624Z,5.63
2022-09-28T21:33:51.452Z,7.07
2022-09-28T21:36:17.926Z,6.83
2022-09-28T21:38:44.475Z,6.80
2022-09-28T21:41:11.022Z,6.03
2022-09-28T21:43:38.528Z,6.03
2022-09-28T21:46:04.865Z,7.07
2022-09-28T21:48:31.126Z,5.33
2022-09-28T21:50:58.311Z,6.10
2022-09-28T21:53:25.297Z,5.33
2022-09-28T21:55:53.015Z,5.20
2022-09-28T21:58:21.993Z,5.00
2022-09-28T22:00:48.226Z,5.50
2022-09-28T22:03:15.771Z,6.13
2022-09-28T22:05:41.999Z,5.43
2022-09-28T22:08:08.601Z,7.03
2022-09-28T22:10:35.899Z,5.53
2022-09-28T22:13:02.155Z,6.13
2022-09-28T22:15:31.390Z,4.83
2022-09-28T22:17:57.804Z,5.43
2022-09-28T22:20:24.024Z,7.20
2022-09-28T22:22:50.748Z,6.87
2022-09-28T22:25:17.113Z,5.43
2022-09-28T22:27:43.353Z,5.60
2022-09-28T22:30:09.801Z,5.20
2022-09-28T22:32:36.043Z,5.50
2022-09-28T22:35:02.295Z,6.50
2022-09-28T22:37:28.586Z,6.57
2022-09-28T22:39:55.330Z,5.70
2022-09-28T22:42:21.804Z,5.37
2022-09-28T22:44:48.016Z,6.10
2022-09-28T22:47:14.286Z,6.73
2022-09-28T22:49:40.527Z,7.27
2022-09-28T22:52:06.750Z,5.60
2022-09-28T22:54:32.984Z,6.13
2022-09-28T22:56:59.218Z,4.57
2022-09-28T22:59:25.440Z,6.30
2022-09-28T23:01:51.732Z,6.93
2022-09-28T23:04:17.977Z,6.73
2022-09-28T23:06:44.204Z,7.67
2022-09-28T23:09:10.423Z,5.60
2022-09-28T23:11:37.758Z,5.80
2022-09-28T23:14:04.098Z,5.93
2022-09-28T23:16:30.461Z,4.77
2022-09-28T23:18:57.138Z,4.87
2022-09-28T23:21:25.388Z,5.43
2022-09-28T23:23:53.418Z,4.67
2022-09-28T23:26:20.823Z,6.23
2022-09-28T23:28:47.228Z,5.37
2022-09-28T23:31:17.905Z,6.57
2022-09-28T23:33:44.348Z,6.70
2022-09-28T23:36:11.005Z,6.83
2022-09-28T23:38:37.537Z,5.27
2022-09-28T23:41:03.816Z,4.47
2022-09-28T23:43:30.047Z,5.73
2022-09-28T23:45:56.266Z,5.03
2022-09-28T23:48:22.545Z,5.40
2022-09-28T23:50:48.770Z,6.87
2022-09-28T23:53:15.166Z,5.33
2022-09-28T23:55:42.129Z,6.57
2022-09-28T23:58:08.480Z,5.90
